createdAt,value
2018-06-21T00:00:05.084Z,12.23
2018-06-21T00:00:38.227Z,12.10
2018-06-21T00:01:11.316Z,12.68
2018-06-21T00:01:44.677Z,12.28
2018-06-21T00:02:17.773Z,12.25
2018-06-21T00:02:50.924Z,15.50
2018-06-21T00:03:23.977Z,12.78
2018-06-21T00:03:57.055Z,12.53
2018-06-21T00:04:30.165Z,14.15
2018-06-21T00:05:03.360Z,13.48
2018-06-21T00:05:36.423Z,15.05
2018-06-21T00:06:09.540Z,13.62
2018-06-21T00:06:42.605Z,12.68
2018-06-21T00:07:15.756Z,12.28
2018-06-21T00:07:48.881Z,13.68
2018-06-21T00:08:22.231Z,12.10
2018-06-21T00:08:55.590Z,12.25
2018-06-21T00:09:28.663Z,12.80
2018-06-21T00:10:01.956Z,12.58
2018-06-21T00:10:35.041Z,11.93
2018-06-21T00:11:08.123Z,12.20
2018-06-21T00:11:41.204Z,13.22
2018-06-21T00:12:14.289Z,13.48
2018-06-21T00:12:47.350Z,12.18
2018-06-21T00:13:20.407Z,15.72
2018-06-21T00:13:53.479Z,11.97
2018-06-21T00:14:26.530Z,12.30
2018-06-21T00:14:59.625Z,12.10
2018-06-21T00:15:32.808Z,14.33
2018-06-21T00:16:06.061Z,12.23
2018-06-21T00:16:39.396Z,13.60
2018-06-21T00:17:12.469Z,13.00
2018-06-21T00:17:45.576Z,11.85
2018-06-21T00:18:18.884Z,12.28
2018-06-21T00:18:51.971Z,12.28
2018-06-21T00:19:25.050Z,15.25
2018-06-21T00:19:58.231Z,12.10
2018-06-21T00:20:31.339Z,13.60
2018-06-21T00:21:04.802Z,11.68
2018-06-21T00:21:37.920Z,11.35
2018-06-21T00:22:11.043Z,13.03
2018-06-21T00:22:44.137Z,12.30
2018-06-21T00:23:17.691Z,12.18
2018-06-21T00:23:51.229Z,13.10
2018-06-21T00:24:24.714Z,15.93
2018-06-21T00:24:57.892Z,11.90
2018-06-21T00:25:30.971Z,13.70
2018-06-21T00:26:04.136Z,12.90
2018-06-21T00:26:37.264Z,12.98
2018-06-21T00:27:10.489Z,12.98
2018-06-21T00:27:43.657Z,13.53
2018-06-21T00:28:16.833Z,12.75
2018-06-21T00:28:49.953Z,13.08
2018-06-21T00:29:23.200Z,14.35
2018-06-21T00:29:56.304Z,13.78
2018-06-21T00:30:29.383Z,14.45
2018-06-21T00:31:02.451Z,14.38
2018-06-21T00:31:35.529Z,13.65
2018-06-21T00:32:08.769Z,13.85
2018-06-21T00:32:41.970Z,13.60
2018-06-21T00:33:15.052Z,13.30
2018-06-21T00:33:48.444Z,13.13
2018-06-21T00:34:22.100Z,13.90
2018-06-21T00:34:55.184Z,12.45
2018-06-21T00:35:28.477Z,13.60
2018-06-21T00:36:01.602Z,12.70
2018-06-21T00:36:34.699Z,12.82
2018-06-21T00:37:08.127Z,12.55
2018-06-21T00:37:41.231Z,14.13
2018-06-21T00:38:14.311Z,12.63
2018-06-21T00:38:47.516Z,14.40
2018-06-21T00:39:20.633Z,13.05
2018-06-21T00:39:53.708Z,12.05
2018-06-21T00:40:26.797Z,13.20
2018-06-21T00:40:59.891Z,13.13
2018-06-21T00:41:32.966Z,12.15
2018-06-21T00:42:06.323Z,12.05
2018-06-21T00:42:39.410Z,11.38
2018-06-21T00:43:12.493Z,13.43
2018-06-21T00:43:45.598Z,11.40
2018-06-21T00:44:19.006Z,12.05
2018-06-21T00:44:52.296Z,12.28
2018-06-21T00:45:25.378Z,12.68
2018-06-21T00:45:58.541Z,12.63
2018-06-21T00:46:31.605Z,12.93
2018-06-21T00:47:04.726Z,13.18
2018-06-21T00:47:37.786Z,14.28
2018-06-21T00:48:10.937Z,12.35
2018-06-21T00:48:44.436Z,15.45
2018-06-21T00:49:17.535Z,14.63
2018-06-21T00:49:57.069Z,12.95
2018-06-21T00:50:30.735Z,15.00
2018-06-21T00:51:03.913Z,12.33
2018-06-21T00:51:36.983Z,12.68
2018-06-21T00:52:10.575Z,11.05
2018-06-21T00:52:43.767Z,13.48
2018-06-21T00:53:16.860Z,14.85
2018-06-21T00:53:50.108Z,11.75
2018-06-21T00:54:23.315Z,11.63
2018-06-21T00:54:56.391Z,10.35
2018-06-21T00:55:34.998Z,9.98
2018-06-21T00:56:11.363Z,11.43
2018-06-21T00:56:44.448Z,11.25
2018-06-21T00:57:17.504Z,13.08
2018-06-21T00:57:50.553Z,12.68
2018-06-21T00:58:23.619Z,11.95
2018-06-21T00:58:56.679Z,12.03
2018-06-21T00:59:29.791Z,14.65
2018-06-21T01:00:02.895Z,11.28
2018-06-21T01:00:36.731Z,12.03
2018-06-21T01:01:10.036Z,12.15
2018-06-21T01:01:43.234Z,11.28
2018-06-21T01:02:16.408Z,11.55
2018-06-21T01:02:49.568Z,14.00
2018-06-21T01:03:22.746Z,12.60
2018-06-21T01:03:56.254Z,12.50
2018-06-21T01:04:29.356Z,10.90
2018-06-21T01:05:02.599Z,13.05
2018-06-21T01:05:35.776Z,12.45
2018-06-21T01:06:08.954Z,13.22
2018-06-21T01:06:42.036Z,12.90
2018-06-21T01:07:15.111Z,12.82
2018-06-21T01:07:48.387Z,11.65
2018-06-21T01:08:21.455Z,12.95
2018-06-21T01:08:54.588Z,13.28
2018-06-21T01:09:27.654Z,12.25
2018-06-21T01:10:00.885Z,11.78
2018-06-21T01:10:33.987Z,13.03
2018-06-21T01:11:07.079Z,12.98
2018-06-21T01:11:40.179Z,13.08
2018-06-21T01:12:17.958Z,12.43
2018-06-21T01:12:51.239Z,12.00
2018-06-21T01:13:24.327Z,13.50
2018-06-21T01:13:57.435Z,12.60
2018-06-21T01:14:30.591Z,12.43
2018-06-21T01:15:03.679Z,12.37
2018-06-21T01:15:36.809Z,12.07
2018-06-21T01:16:09.891Z,13.35
2018-06-21T01:16:43.458Z,14.05
2018-06-21T01:17:16.829Z,11.50
2018-06-21T01:17:50.006Z,12.03
2018-06-21T01:18:23.171Z,11.48
2018-06-21T01:18:56.259Z,11.95
2018-06-21T01:19:29.360Z,14.30
2018-06-21T01:20:02.659Z,15.53
2018-06-21T01:20:35.764Z,13.93
2018-06-21T01:21:09.077Z,14.07
2018-06-21T01:21:42.138Z,14.60
2018-06-21T01:22:15.247Z,14.25
2018-06-21T01:22:48.325Z,12.43
2018-06-21T01:23:21.398Z,14.15
2018-06-21T01:23:54.482Z,14.68
2018-06-21T01:24:27.560Z,12.73
2018-06-21T01:25:00.635Z,12.80
2018-06-21T01:25:34.200Z,14.90
2018-06-21T01:26:07.789Z,16.20
2018-06-21T01:26:40.888Z,14.47
2018-06-21T01:27:14.040Z,14.10
2018-06-21T01:27:47.138Z,13.78
2018-06-21T01:28:20.384Z,13.72
2018-06-21T01:28:53.569Z,13.45
2018-06-21T01:29:27.044Z,14.68
2018-06-21T01:30:00.130Z,15.00
2018-06-21T01:30:33.213Z,13.18
2018-06-21T01:31:06.286Z,12.55
2018-06-21T01:31:39.376Z,13.98
2018-06-21T01:32:12.501Z,13.55
2018-06-21T01:32:45.824Z,14.50
2018-06-21T01:33:18.938Z,13.05
2018-06-21T01:33:52.026Z,13.22
2018-06-21T01:34:25.371Z,15.78
2018-06-21T01:34:58.760Z,14.55
2018-06-21T01:35:32.035Z,13.05
2018-06-21T01:36:05.200Z,16.05
2018-06-21T01:36:38.475Z,13.38
2018-06-21T01:37:11.686Z,13.85
2018-06-21T01:37:44.778Z,14.25
2018-06-21T01:38:17.908Z,13.32
2018-06-21T01:38:51.098Z,13.85
2018-06-21T01:39:24.189Z,14.90
2018-06-21T01:39:57.432Z,14.07
2018-06-21T01:40:30.559Z,15.60
2018-06-21T01:41:03.639Z,13.55
2018-06-21T01:41:36.974Z,15.13
2018-06-21T01:42:10.181Z,13.70
2018-06-21T01:42:43.328Z,14.38
2018-06-21T01:43:16.425Z,13.65
2018-06-21T01:43:49.616Z,14.68
2018-06-21T01:44:22.710Z,15.13
2018-06-21T01:44:55.783Z,13.45
2018-06-21T01:45:29.235Z,12.85
2018-06-21T01:46:02.304Z,11.85
2018-06-21T01:46:35.382Z,13.10
2018-06-21T01:47:08.461Z,13.03
2018-06-21T01:47:41.618Z,13.80
2018-06-21T01:48:14.731Z,14.85
2018-06-21T01:48:48.036Z,13.78
2018-06-21T01:49:21.222Z,13.43
2018-06-21T01:49:54.309Z,14.78
2018-06-21T01:50:27.656Z,14.15
2018-06-21T01:51:00.947Z,13.40
2018-06-21T01:51:34.188Z,12.68
2018-06-21T01:52:07.494Z,12.33
2018-06-21T01:52:40.570Z,13.90
2018-06-21T01:53:13.633Z,13.38
2018-06-21T01:53:46.927Z,13.85
2018-06-21T01:54:20.064Z,13.43
2018-06-21T01:54:53.251Z,14.53
2018-06-21T01:55:26.354Z,14.10
2018-06-21T01:55:59.603Z,13.15
2018-06-21T01:56:32.917Z,13.03
2018-06-21T01:57:06.409Z,14.50
2018-06-21T01:57:39.491Z,13.55
2018-06-21T01:58:12.558Z,14.13
2018-06-21T01:58:46.231Z,14.65
2018-06-21T01:59:19.314Z,14.40
2018-06-21T01:59:52.427Z,13.50
2018-06-21T02:00:25.788Z,14.10
2018-06-21T02:00:58.862Z,13.30
2018-06-21T02:01:31.939Z,13.88
2018-06-21T02:02:05.308Z,13.43
2018-06-21T02:02:38.415Z,14.85
2018-06-21T02:03:11.516Z,14.10
2018-06-21T02:03:44.595Z,13.22
2018-06-21T02:04:17.642Z,13.93
2018-06-21T02:04:50.722Z,14.33
2018-06-21T02:05:23.809Z,14.55
2018-06-21T02:05:57.143Z,13.50
2018-06-21T02:06:30.247Z,15.78
2018-06-21T02:07:03.796Z,13.43
2018-06-21T02:07:38.059Z,16.42
2018-06-21T02:08:11.228Z,13.78
2018-06-21T02:08:44.386Z,13.75
2018-06-21T02:09:17.438Z,13.53
2018-06-21T02:09:50.912Z,14.58
2018-06-21T02:10:24.125Z,14.85
2018-06-21T02:10:57.213Z,15.35
2018-06-21T02:11:30.387Z,15.10
2018-06-21T02:12:03.638Z,12.40
2018-06-21T02:12:36.801Z,12.33
2018-06-21T02:13:09.913Z,12.35
2018-06-21T02:13:42.967Z,12.58
2018-06-21T02:14:16.050Z,10.82
2018-06-21T02:14:49.144Z,12.85
2018-06-21T02:15:22.208Z,12.95
2018-06-21T02:15:55.329Z,13.55
2018-06-21T02:16:28.767Z,12.55
2018-06-21T02:17:01.938Z,15.28
2018-06-21T02:17:35.025Z,13.50
2018-06-21T02:18:08.144Z,14.70
2018-06-21T02:18:41.232Z,11.90
2018-06-21T02:19:14.555Z,12.63
2018-06-21T02:19:47.655Z,14.70
2018-06-21T02:20:20.839Z,13.20
2018-06-21T02:20:53.902Z,12.13
2018-06-21T02:21:26.993Z,13.28
2018-06-21T02:22:00.305Z,13.83
2018-06-21T02:22:33.416Z,13.40
2018-06-21T02:23:06.583Z,13.78
2018-06-21T02:23:39.666Z,13.25
2018-06-21T02:24:12.768Z,14.05
2018-06-21T02:24:45.825Z,17.17
2018-06-21T02:25:18.920Z,16.23
2018-06-21T02:25:53.717Z,14.70
2018-06-21T02:26:26.925Z,13.80
2018-06-21T02:27:00.029Z,14.43
2018-06-21T02:27:33.244Z,14.80
2018-06-21T02:28:06.337Z,13.70
2018-06-21T02:28:39.604Z,14.13
2018-06-21T02:29:12.672Z,15.90
2018-06-21T02:29:45.748Z,12.43
2018-06-21T02:30:18.856Z,13.10
2018-06-21T02:30:51.981Z,13.85
2018-06-21T02:31:25.136Z,16.23
2018-06-21T02:31:58.246Z,15.80
2018-06-21T02:32:31.317Z,13.00
2018-06-21T02:33:04.399Z,15.38
2018-06-21T02:33:37.466Z,13.30
2018-06-21T02:34:10.513Z,14.10
2018-06-21T02:34:43.775Z,13.68
2018-06-21T02:35:16.954Z,14.28
2018-06-21T02:35:50.064Z,13.55
2018-06-21T02:36:23.146Z,12.95
2018-06-21T02:36:56.455Z,13.22
2018-06-21T02:37:29.885Z,12.95
2018-06-21T02:38:03.153Z,12.68
2018-06-21T02:38:36.238Z,15.38
2018-06-21T02:39:09.999Z,13.88
2018-06-21T02:39:43.179Z,13.00
2018-06-21T02:40:16.258Z,12.55
2018-06-21T02:40:49.361Z,14.03
2018-06-21T02:41:22.438Z,15.60
2018-06-21T02:41:56.019Z,14.05
2018-06-21T02:42:29.144Z,14.23
2018-06-21T02:43:02.227Z,15.13
2018-06-21T02:43:35.333Z,13.70
2018-06-21T02:44:08.421Z,13.03
2018-06-21T02:44:41.783Z,12.93
2018-06-21T02:45:14.958Z,14.85
2018-06-21T02:45:48.042Z,12.90
2018-06-21T02:46:21.119Z,15.72
2018-06-21T02:46:54.192Z,17.82
2018-06-21T02:47:27.276Z,14.03
2018-06-21T02:48:00.528Z,17.70
2018-06-21T02:48:33.631Z,12.98
2018-06-21T02:49:06.912Z,15.45
2018-06-21T02:49:40.032Z,13.95
2018-06-21T02:50:13.136Z,13.80
2018-06-21T02:50:46.206Z,13.22
2018-06-21T02:51:19.317Z,12.50
2018-06-21T02:51:52.456Z,14.87
2018-06-21T02:52:25.539Z,13.83
2018-06-21T02:52:58.669Z,13.38
2018-06-21T02:53:31.750Z,15.85
2018-06-21T02:54:04.855Z,14.03
2018-06-21T02:54:38.090Z,14.00
2018-06-21T02:55:11.179Z,15.65
2018-06-21T02:55:44.274Z,17.25
2018-06-21T02:56:17.338Z,14.20
2018-06-21T02:56:50.479Z,14.05
2018-06-21T02:57:23.586Z,16.25
2018-06-21T02:57:56.832Z,14.70
2018-06-21T02:58:29.910Z,14.23
2018-06-21T02:59:03.199Z,14.50
2018-06-21T02:59:36.684Z,14.00
2018-06-21T03:00:09.987Z,16.48
2018-06-21T03:00:43.060Z,14.80
2018-06-21T03:01:16.153Z,16.00
2018-06-21T03:01:49.381Z,16.07
2018-06-21T03:02:22.696Z,16.02
2018-06-21T03:02:55.777Z,16.32
2018-06-21T03:03:28.848Z,16.00
2018-06-21T03:04:02.289Z,16.55
2018-06-21T03:04:35.593Z,16.57
2018-06-21T03:05:08.679Z,16.23
2018-06-21T03:05:41.773Z,15.70
2018-06-21T03:06:15.054Z,15.38
2018-06-21T03:06:48.299Z,15.25
2018-06-21T03:07:21.429Z,16.77
2018-06-21T03:07:54.792Z,15.00
2018-06-21T03:08:27.898Z,16.45
2018-06-21T03:09:00.939Z,16.60
2018-06-21T03:09:34.182Z,16.93
2018-06-21T03:10:07.330Z,14.70
2018-06-21T03:10:40.464Z,14.68
2018-06-21T03:11:13.554Z,15.53
2018-06-21T03:11:46.633Z,15.80
2018-06-21T03:12:21.682Z,17.95
2018-06-21T03:12:54.771Z,15.85
2018-06-21T03:13:27.852Z,15.40
2018-06-21T03:14:01.066Z,17.50
2018-06-21T03:14:34.348Z,14.80
2018-06-21T03:15:07.839Z,14.63
2018-06-21T03:15:41.133Z,17.00
2018-06-21T03:16:14.220Z,17.05
2018-06-21T03:16:47.680Z,16.93
2018-06-21T03:17:20.908Z,16.50
2018-06-21T03:17:53.991Z,18.70
2018-06-21T03:18:27.068Z,18.45
2018-06-21T03:19:00.117Z,15.98
2018-06-21T03:19:33.158Z,18.17
2018-06-21T03:20:06.262Z,15.48
2018-06-21T03:20:39.412Z,15.85
2018-06-21T03:21:12.530Z,16.27
2018-06-21T03:21:45.671Z,17.40
2018-06-21T03:22:18.965Z,17.27
2018-06-21T03:22:52.059Z,18.20
2018-06-21T03:23:25.147Z,17.32
2018-06-21T03:23:58.910Z,16.07
2018-06-21T03:24:31.981Z,16.50
2018-06-21T03:25:05.068Z,18.42
2018-06-21T03:25:38.227Z,19.73
2018-06-21T03:26:11.340Z,17.90
2018-06-21T03:26:44.583Z,17.02
2018-06-21T03:27:17.747Z,17.65
2018-06-21T03:27:50.812Z,17.17
2018-06-21T03:28:23.899Z,17.10
2018-06-21T03:28:56.970Z,16.42
2018-06-21T03:29:30.065Z,15.95
2018-06-21T03:30:03.259Z,20.55
2018-06-21T03:30:36.422Z,18.07
2018-06-21T03:31:09.602Z,16.85
2018-06-21T03:31:42.773Z,17.73
2018-06-21T03:32:15.959Z,17.60
2018-06-21T03:32:49.074Z,16.65
2018-06-21T03:33:22.304Z,15.35
2018-06-21T03:33:55.505Z,15.32
2018-06-21T03:34:28.658Z,17.37
2018-06-21T03:35:01.848Z,15.35
2018-06-21T03:35:35.151Z,15.85
2018-06-21T03:36:08.258Z,16.37
2018-06-21T03:36:41.350Z,16.55
2018-06-21T03:37:14.683Z,15.88
2018-06-21T03:37:47.780Z,16.15
2018-06-21T03:38:20.906Z,19.62
2018-06-21T03:38:54.011Z,14.87
2018-06-21T03:39:27.395Z,15.63
2018-06-21T03:40:01.100Z,17.82
2018-06-21T03:40:34.242Z,15.70
2018-06-21T03:41:07.393Z,14.87
2018-06-21T03:41:40.596Z,14.85
2018-06-21T03:42:13.749Z,13.58
2018-06-21T03:42:47.025Z,17.20
2018-06-21T03:43:20.123Z,15.45
2018-06-21T03:43:53.320Z,17.67
2018-06-21T03:44:26.708Z,15.70
2018-06-21T03:44:59.896Z,14.50
2018-06-21T03:45:32.978Z,13.72
2018-06-21T03:46:06.665Z,17.15
2018-06-21T03:46:40.136Z,15.63
2018-06-21T03:47:13.322Z,16.50
2018-06-21T03:47:46.431Z,13.50
2018-06-21T03:48:19.675Z,13.50
2018-06-21T03:48:52.807Z,14.30
2018-06-21T03:49:26.026Z,15.18
2018-06-21T03:49:59.323Z,15.32
2018-06-21T03:50:32.430Z,13.98
2018-06-21T03:51:05.573Z,15.43
2018-06-21T03:51:38.743Z,15.63
2018-06-21T03:52:11.928Z,16.73
2018-06-21T03:52:45.096Z,13.98
2018-06-21T03:53:18.253Z,14.43
2018-06-21T03:53:51.578Z,14.00
2018-06-21T03:54:25.052Z,14.65
2018-06-21T03:54:58.140Z,14.47
2018-06-21T03:55:31.292Z,14.98
2018-06-21T03:56:04.724Z,14.45
2018-06-21T03:56:37.808Z,16.05
2018-06-21T03:57:11.258Z,14.53
2018-06-21T03:57:44.617Z,13.70
2018-06-21T03:58:17.884Z,14.53
2018-06-21T03:58:50.987Z,12.37
2018-06-21T03:59:24.107Z,13.38
2018-06-21T03:59:57.326Z,13.53
2018-06-21T04:00:30.429Z,12.85
2018-06-21T04:01:03.815Z,13.93
2018-06-21T04:01:36.931Z,12.75
2018-06-21T04:02:10.046Z,13.28
2018-06-21T04:02:43.135Z,16.17
2018-06-21T04:03:16.232Z,13.10
2018-06-21T04:03:49.303Z,13.05
2018-06-21T04:04:22.424Z,13.30
2018-06-21T04:04:55.542Z,12.73
2018-06-21T04:05:28.934Z,12.90
2018-06-21T04:06:01.980Z,13.40
2018-06-21T04:06:35.060Z,13.13
2018-06-21T04:07:08.344Z,13.35
2018-06-21T04:07:41.648Z,16.17
2018-06-21T04:08:14.759Z,15.70
2018-06-21T04:08:47.912Z,14.10
2018-06-21T04:09:21.047Z,13.03
2018-06-21T04:09:54.129Z,12.63
2018-06-21T04:10:27.203Z,13.08
2018-06-21T04:11:01.591Z,13.10
2018-06-21T04:11:34.645Z,15.13
2018-06-21T04:12:07.998Z,12.98
2018-06-21T04:12:41.116Z,13.13
2018-06-21T04:13:14.212Z,14.30
2018-06-21T04:13:47.302Z,13.43
2018-06-21T04:14:20.357Z,14.10
2018-06-21T04:14:53.406Z,13.13
2018-06-21T04:15:26.952Z,12.90
2018-06-21T04:16:00.255Z,14.55
2018-06-21T04:16:33.344Z,13.78
2018-06-21T04:17:06.467Z,12.20
2018-06-21T04:17:39.542Z,13.93
2018-06-21T04:18:13.277Z,13.68
2018-06-21T04:18:46.360Z,13.13
2018-06-21T04:19:19.938Z,12.98
2018-06-21T04:19:53.008Z,12.95
2018-06-21T04:20:26.093Z,14.30
2018-06-21T04:20:59.184Z,13.45
2018-06-21T04:21:32.282Z,13.20
2018-06-21T04:22:05.395Z,14.30
2018-06-21T04:22:38.568Z,14.45
2018-06-21T04:23:11.750Z,15.10
2018-06-21T04:23:44.864Z,12.13
2018-06-21T04:24:18.411Z,15.45
2018-06-21T04:24:51.449Z,13.83
2018-06-21T04:25:25.075Z,13.05
2018-06-21T04:25:58.564Z,14.10
2018-06-21T04:26:31.870Z,16.25
2018-06-21T04:27:05.235Z,13.60
2018-06-21T04:27:38.421Z,14.93
2018-06-21T04:28:11.606Z,13.60
2018-06-21T04:28:44.775Z,16.95
2018-06-21T04:29:18.538Z,14.90
2018-06-21T04:29:52.349Z,15.72
2018-06-21T04:30:25.410Z,13.88
2018-06-21T04:30:58.805Z,16.65
2018-06-21T04:31:32.282Z,12.85
2018-06-21T04:32:05.371Z,12.75
2018-06-21T04:32:38.427Z,12.60
2018-06-21T04:33:11.723Z,13.32
2018-06-21T04:33:45.243Z,17.40
2018-06-21T04:34:18.398Z,11.97
2018-06-21T04:34:52.003Z,12.13
2018-06-21T04:35:25.121Z,11.33
2018-06-21T04:35:58.199Z,14.38
2018-06-21T04:36:31.426Z,12.93
2018-06-21T04:37:04.609Z,12.55
2018-06-21T04:37:38.372Z,13.00
2018-06-21T04:38:11.459Z,12.37
2018-06-21T04:38:44.751Z,14.38
2018-06-21T04:39:18.232Z,14.00
2018-06-21T04:39:51.311Z,13.45
2018-06-21T04:40:24.388Z,14.90
2018-06-21T04:40:57.743Z,13.90
2018-06-21T04:41:30.818Z,13.28
2018-06-21T04:42:04.145Z,12.80
2018-06-21T04:42:37.603Z,16.23
2018-06-21T04:43:10.791Z,15.18
2018-06-21T04:43:43.891Z,12.75
2018-06-21T04:44:17.141Z,12.53
2018-06-21T04:44:50.324Z,15.08
2018-06-21T04:45:23.446Z,13.30
2018-06-21T04:45:56.880Z,14.93
2018-06-21T04:46:30.101Z,12.95
2018-06-21T04:47:04.079Z,11.65
2018-06-21T04:47:37.187Z,12.25
2018-06-21T04:48:10.937Z,12.75
2018-06-21T04:48:44.105Z,12.03
2018-06-21T04:49:17.505Z,13.00
2018-06-21T04:49:50.893Z,11.78
2018-06-21T04:50:24.072Z,12.23
2018-06-21T04:50:57.362Z,12.03
2018-06-21T04:51:30.467Z,11.88
2018-06-21T04:52:03.589Z,13.62
2018-06-21T04:52:36.712Z,12.28
2018-06-21T04:53:09.818Z,12.68
2018-06-21T04:53:43.755Z,13.78
2018-06-21T04:54:16.871Z,11.35
2018-06-21T04:54:49.986Z,12.03
2018-06-21T04:55:23.599Z,12.10
2018-06-21T04:55:56.726Z,12.40
2018-06-21T04:56:30.261Z,12.68
2018-06-21T04:57:03.364Z,12.80
2018-06-21T04:57:36.764Z,12.30
2018-06-21T04:58:09.931Z,14.78
2018-06-21T04:58:43.163Z,11.30
2018-06-21T04:59:16.960Z,11.73
2018-06-21T04:59:50.262Z,11.65
2018-06-21T05:00:23.360Z,12.82
2018-06-21T05:00:56.686Z,11.50
2018-06-21T05:01:30.020Z,11.85
2018-06-21T05:02:03.143Z,13.53
2018-06-21T05:02:36.472Z,13.13
2018-06-21T05:03:10.230Z,11.50
2018-06-21T05:03:43.630Z,13.95
2018-06-21T05:04:16.968Z,13.03
2018-06-21T05:04:50.406Z,12.13
2018-06-21T05:05:23.511Z,11.93
2018-06-21T05:05:56.621Z,13.08
2018-06-21T05:06:30.156Z,12.90
2018-06-21T05:07:03.303Z,14.28
2018-06-21T05:07:36.471Z,13.10
2018-06-21T05:08:09.673Z,12.13
2018-06-21T05:08:42.798Z,12.63
2018-06-21T05:09:15.996Z,14.90
2018-06-21T05:09:49.192Z,12.18
2018-06-21T05:10:22.349Z,13.78
2018-06-21T05:10:55.432Z,12.85
2018-06-21T05:11:28.847Z,12.58
2018-06-21T05:12:02.200Z,11.43
2018-06-21T05:12:35.371Z,11.25
2018-06-21T05:13:08.447Z,13.70
2018-06-21T05:13:41.866Z,14.20
2018-06-21T05:14:15.170Z,15.20
2018-06-21T05:14:48.662Z,12.70
2018-06-21T05:15:21.773Z,12.43
2018-06-21T05:15:54.864Z,15.35
2018-06-21T05:16:27.939Z,14.68
2018-06-21T05:17:01.058Z,14.35
2018-06-21T05:17:34.735Z,12.37
2018-06-21T05:18:07.865Z,12.70
2018-06-21T05:18:41.068Z,12.55
2018-06-21T05:19:14.153Z,13.00
2018-06-21T05:19:47.252Z,12.58
2018-06-21T05:20:20.488Z,13.53
2018-06-21T05:20:54.304Z,11.88
2018-06-21T05:21:27.421Z,12.63
2018-06-21T05:22:00.489Z,11.70
2018-06-21T05:22:33.546Z,12.55
2018-06-21T05:23:06.633Z,11.83
2018-06-21T05:23:40.039Z,11.10
2018-06-21T05:24:13.103Z,12.85
2018-06-21T05:24:46.556Z,10.90
2018-06-21T05:25:19.732Z,22.15
2018-06-21T05:25:52.799Z,10.85
2018-06-21T05:26:25.904Z,12.95
2018-06-21T05:26:58.985Z,10.80
2018-06-21T05:27:32.128Z,12.05
2018-06-21T05:28:05.249Z,13.43
2018-06-21T05:28:38.408Z,13.72
2018-06-21T05:29:11.673Z,13.35
2018-06-21T05:29:44.775Z,12.25
2018-06-21T05:30:18.144Z,12.45
2018-06-21T05:30:51.224Z,15.25
2018-06-21T05:31:24.304Z,14.55
2018-06-21T05:31:57.543Z,11.80
2018-06-21T05:32:31.024Z,12.18
2018-06-21T05:33:04.251Z,14.05
2018-06-21T05:33:37.392Z,12.73
2018-06-21T05:34:10.565Z,12.33
2018-06-21T05:34:43.831Z,11.78
2018-06-21T05:35:16.950Z,12.45
2018-06-21T05:35:50.093Z,12.50
2018-06-21T05:36:23.353Z,13.48
2018-06-21T05:36:56.565Z,17.60
2018-06-21T05:37:29.668Z,14.58
2018-06-21T05:38:02.755Z,11.00
2018-06-21T05:38:36.331Z,11.57
2018-06-21T05:39:10.720Z,11.80
2018-06-21T05:39:43.888Z,12.43
2018-06-21T05:40:22.605Z,11.00
2018-06-21T05:40:55.694Z,16.00
2018-06-21T05:41:28.975Z,11.18
2018-06-21T05:42:02.111Z,11.60
2018-06-21T05:42:35.445Z,13.30
2018-06-21T05:43:08.867Z,18.25
2018-06-21T05:43:41.993Z,11.93
2018-06-21T05:44:15.095Z,11.88
2018-06-21T05:44:48.240Z,13.08
2018-06-21T05:45:21.527Z,14.40
2018-06-21T05:45:54.607Z,13.30
2018-06-21T05:46:27.888Z,14.20
2018-06-21T05:47:01.009Z,12.53
2018-06-21T05:47:34.227Z,13.90
2018-06-21T05:48:07.317Z,15.35
2018-06-21T05:48:40.580Z,12.35
2018-06-21T05:49:14.421Z,12.95
2018-06-21T05:49:47.507Z,12.43
2018-06-21T05:50:20.652Z,16.30
2018-06-21T05:50:53.912Z,12.85
2018-06-21T05:51:27.015Z,10.43
2018-06-21T05:52:00.283Z,11.40
2018-06-21T05:52:33.576Z,13.38
2018-06-21T05:53:06.659Z,11.03
2018-06-21T05:53:39.735Z,10.50
2018-06-21T05:54:13.009Z,15.25
2018-06-21T05:54:46.098Z,10.93
2018-06-21T05:55:19.346Z,13.80
2018-06-21T05:55:52.655Z,10.65
2018-06-21T05:56:25.706Z,10.75
2018-06-21T05:56:58.795Z,11.50
2018-06-21T05:57:32.381Z,10.85
2018-06-21T05:58:05.486Z,11.93
2018-06-21T05:58:38.760Z,10.23
2018-06-21T05:59:11.838Z,13.03
2018-06-21T05:59:45.182Z,16.97
2018-06-21T06:00:18.328Z,10.18
2018-06-21T06:00:51.438Z,12.95
2018-06-21T06:01:24.739Z,10.50
2018-06-21T06:01:57.869Z,9.23
2018-06-21T06:02:30.952Z,10.82
2018-06-21T06:03:04.277Z,9.20
2018-06-21T06:03:37.425Z,10.13
2018-06-21T06:04:10.689Z,10.95
2018-06-21T06:04:44.107Z,11.03
2018-06-21T06:05:17.504Z,10.50
2018-06-21T06:05:50.602Z,10.85
2018-06-21T06:06:23.944Z,10.55
2018-06-21T06:06:57.322Z,12.20
2018-06-21T06:07:30.627Z,14.45
2018-06-21T06:08:03.770Z,10.80
2018-06-21T06:08:36.889Z,12.98
2018-06-21T06:09:11.184Z,9.98
2018-06-21T06:09:44.433Z,9.65
2018-06-21T06:10:17.610Z,10.45
2018-06-21T06:10:50.715Z,9.75
2018-06-21T06:11:23.849Z,13.00
2018-06-21T06:11:56.903Z,10.80
2018-06-21T06:12:31.564Z,9.10
2018-06-21T06:13:04.979Z,10.50
2018-06-21T06:13:38.047Z,9.40
2018-06-21T06:14:11.185Z,9.93
2018-06-21T06:14:44.197Z,10.53
2018-06-21T06:15:17.516Z,11.95
2018-06-21T06:15:50.761Z,15.30
2018-06-21T06:16:24.116Z,11.35
2018-06-21T06:16:57.283Z,10.68
2018-06-21T06:17:30.774Z,17.05
2018-06-21T06:18:03.868Z,12.35
2018-06-21T06:18:37.076Z,9.85
2018-06-21T06:19:10.446Z,10.90
2018-06-21T06:19:43.571Z,10.35
2018-06-21T06:20:16.916Z,12.40
2018-06-21T06:20:50.287Z,10.03
2018-06-21T06:21:23.637Z,11.30
2018-06-21T06:21:56.855Z,14.28
2018-06-21T06:22:30.134Z,9.50
2018-06-21T06:23:03.178Z,9.58
2018-06-21T06:23:36.235Z,9.90
2018-06-21T06:24:10.047Z,11.10
2018-06-21T06:24:43.190Z,10.18
2018-06-21T06:25:16.498Z,11.85
2018-06-21T06:25:49.622Z,11.88
2018-06-21T06:26:23.257Z,11.45
2018-06-21T06:26:56.352Z,9.60
2018-06-21T06:27:29.452Z,13.13
2018-06-21T06:28:02.700Z,10.38
2018-06-21T06:28:35.860Z,11.95
2018-06-21T06:29:09.192Z,10.75
2018-06-21T06:29:42.275Z,10.50
2018-06-21T06:30:15.334Z,12.82
2018-06-21T06:30:49.349Z,11.53
2018-06-21T06:31:22.443Z,11.60
2018-06-21T06:31:56.178Z,11.15
2018-06-21T06:32:29.379Z,10.50
2018-06-21T06:33:02.550Z,11.38
2018-06-21T06:33:35.670Z,13.20
2018-06-21T06:34:08.972Z,10.60
2018-06-21T06:34:42.171Z,9.93
2018-06-21T06:35:15.385Z,14.93
2018-06-21T06:35:48.472Z,11.25
2018-06-21T06:36:21.564Z,10.28
2018-06-21T06:36:55.122Z,13.20
2018-06-21T06:37:28.225Z,10.68
2018-06-21T06:38:01.574Z,10.40
2018-06-21T06:38:34.651Z,10.43
2018-06-21T06:39:14.592Z,13.45
2018-06-21T06:39:48.172Z,9.98
2018-06-21T06:40:21.290Z,10.28
2018-06-21T06:40:54.717Z,8.55
2018-06-21T06:41:27.778Z,10.98
2018-06-21T06:42:02.300Z,11.53
2018-06-21T06:42:35.391Z,9.20
2018-06-21T06:43:08.540Z,10.75
2018-06-21T06:43:41.852Z,9.68
2018-06-21T06:44:15.152Z,10.00
2018-06-21T06:44:48.239Z,9.83
2018-06-21T06:45:21.393Z,10.48
2018-06-21T06:45:54.572Z,9.68
2018-06-21T06:46:27.644Z,13.60
2018-06-21T06:47:00.971Z,10.80
2018-06-21T06:47:34.082Z,10.95
2018-06-21T06:48:09.085Z,10.00
2018-06-21T06:48:42.302Z,10.03
2018-06-21T06:49:15.359Z,11.20
2018-06-21T06:49:49.706Z,10.53
2018-06-21T06:50:22.965Z,10.93
2018-06-21T06:50:56.548Z,10.82
2018-06-21T06:51:30.027Z,10.78
2018-06-21T06:52:03.206Z,11.35
2018-06-21T06:52:36.294Z,11.73
2018-06-21T06:53:09.364Z,10.70
2018-06-21T06:53:42.458Z,9.85
2018-06-21T06:54:15.744Z,10.10
2018-06-21T06:54:49.130Z,10.32
2018-06-21T06:55:22.295Z,9.28
2018-06-21T06:55:55.463Z,10.63
2018-06-21T06:56:28.544Z,10.45
2018-06-21T06:57:01.826Z,10.18
2018-06-21T06:57:35.126Z,12.10
2018-06-21T06:58:08.476Z,9.98
2018-06-21T06:58:41.552Z,9.93
2018-06-21T06:59:14.839Z,9.60
2018-06-21T06:59:47.917Z,10.50
2018-06-21T07:00:21.325Z,9.65
2018-06-21T07:00:54.421Z,10.95
2018-06-21T07:01:27.574Z,8.70
2018-06-21T07:02:01.040Z,10.93
2018-06-21T07:02:34.142Z,8.80
2018-06-21T07:03:07.213Z,16.12
2018-06-21T07:03:40.334Z,9.68
2018-06-21T07:04:13.430Z,9.98
2018-06-21T07:04:46.747Z,11.30
2018-06-21T07:05:19.924Z,9.93
2018-06-21T07:05:53.031Z,9.00
2018-06-21T07:06:26.128Z,9.10
2018-06-21T07:06:59.211Z,9.28
2018-06-21T07:07:32.834Z,9.00
2018-06-21T07:08:06.059Z,10.80
2018-06-21T07:08:39.410Z,10.18